sensor_id;sensor_type;location;lat;lon;timestamp;temperature;humidity
76759;DHT22;65701;45.588;5.186;2024-01-30T05:26:14;9.38;74.60
76759;DHT22;65701;45.588;5.186;2024-01-30T05:28:42;9.38;74.58
76759;DHT22;65701;45.588;5.186;2024-01-30T05:31:09;9.34;74.63
76759;DHT22;65701;45.588;5.186;2024-01-30T05:33:35;9.35;74.70
76759;DHT22;65701;45.588;5.186;2024-01-30T05:36:00;9.31;74.71
76759;DHT22;65701;45.588;5.186;2024-01-30T05:38:26;9.30;74.75
76759;DHT22;65701;45.588;5.186;2024-01-30T05:40:52;9.30;74.79
76759;DHT22;65701;45.588;5.186;2024-01-30T05:43:18;9.27;74.76
76759;DHT22;65701;45.588;5.186;2024-01-30T05:45:43;9.25;74.82
76759;DHT22;65701;45.588;5.186;2024-01-30T05:48:09;9.24;74.89
76759;DHT22;65701;45.588;5.186;2024-01-30T05:50:34;9.24;74.88
76759;DHT22;65701;45.588;5.186;2024-01-30T05:52:59;9.18;74.89
76759;DHT22;65701;45.588;5.186;2024-01-30T05:55:25;9.22;74.81
76759;DHT22;65701;45.588;5.186;2024-01-30T05:57:50;9.21;74.74
76759;DHT22;65701;45.588;5.186;2024-01-30T06:00:17;9.18;74.87
76759;DHT22;65701;45.588;5.186;2024-01-30T06:02:43;9.17;75.03
76759;DHT22;65701;45.588;5.186;2024-01-30T06:05:10;9.17;75.15
76759;DHT22;65701;45.588;5.186;2024-01-30T06:07:35;9.14;75.09
76759;DHT22;65701;45.588;5.186;2024-01-30T06:10:01;9.13;75.36
76759;DHT22;65701;45.588;5.186;2024-01-30T06:12:27;9.08;75.33
76759;DHT22;65701;45.588;5.186;2024-01-30T06:14:53;9.10;75.54
76759;DHT22;65701;45.588;5.186;2024-01-30T06:17:22;9.10;75.46
76759;DHT22;65701;45.588;5.186;2024-01-30T06:19:47;9.05;75.39
76759;DHT22;65701;45.588;5.186;2024-01-30T06:22:13;9.07;75.77
76759;DHT22;65701;45.588;5.186;2024-01-30T06:24:38;9.07;75.88
76759;DHT22;65701;45.588;5.186;2024-01-30T06:27:04;9.05;75.72
76759;DHT22;65701;45.588;5.186;2024-01-30T06:29:29;9.07;75.57
76759;DHT22;65701;45.588;5.186;2024-01-30T06:31:55;9.05;75.47
76759;DHT22;65701;45.588;5.186;2024-01-30T06:34:21;9.00;75.47
76759;DHT22;65701;45.588;5.186;2024-01-30T06:36:46;8.93;75.57
76759;DHT22;65701;45.588;5.186;2024-01-30T06:39:12;8.91;75.56
76759;DHT22;65701;45.588;5.186;2024-01-30T06:41:37;8.86;75.61
76759;DHT22;65701;45.588;5.186;2024-01-30T06:44:03;8.80;75.49
76759;DHT22;65701;45.588;5.186;2024-01-30T06:46:33;8.79;75.68
76759;DHT22;65701;45.588;5.186;2024-01-30T06:48:59;8.76;75.76
76759;DHT22;65701;45.588;5.186;2024-01-30T06:51:25;8.70;75.88
76759;DHT22;65701;45.588;5.186;2024-01-30T06:53:50;8.67;76.34
76759;DHT22;65701;45.588;5.186;2024-01-30T06:56:16;8.63;76.51
76759;DHT22;65701;45.588;5.186;2024-01-30T06:58:49;8.63;76.59
76759;DHT22;65701;45.588;5.186;2024-01-30T07:01:15;8.67;76.25
76759;DHT22;65701;45.588;5.186;2024-01-30T07:03:41;8.66;76.39
76759;DHT22;65701;45.588;5.186;2024-01-30T07:06:06;8.63;76.49
76759;DHT22;65701;45.588;5.186;2024-01-30T07:08:31;8.65;76.54
76759;DHT22;65701;45.588;5.186;2024-01-30T07:10:57;8.67;76.40
76759;DHT22;65701;45.588;5.186;2024-01-30T07:13:22;8.67;76.39
76759;DHT22;65701;45.588;5.186;2024-01-30T07:15:48;8.69;76.44
76759;DHT22;65701;45.588;5.186;2024-01-30T07:18:13;8.69;76.63
76759;DHT22;65701;45.588;5.186;2024-01-30T07:20:39;8.70;76.44
76759;DHT22;65701;45.588;5.186;2024-01-30T07:23:14;8.67;76.70
76759;DHT22;65701;45.588;5.186;2024-01-30T07:25:42;8.70;76.86
76759;DHT22;65701;45.588;5.186;2024-01-30T07:28:08;8.75;77.02
76759;DHT22;65701;45.588;5.186;2024-01-30T07:30:37;8.76;77.23
76759;DHT22;65701;45.588;5.186;2024-01-30T07:33:04;8.81;77.33
76759;DHT22;65701;45.588;5.186;2024-01-30T07:35:29;8.84;77.29
76759;DHT22;65701;45.588;5.186;2024-01-30T07:37:55;8.84;77.13
76759;DHT22;65701;45.588;5.186;2024-01-30T07:40:20;8.84;76.89
76759;DHT22;65701;45.588;5.186;2024-01-30T07:42:46;8.91;77.37
76759;DHT22;65701;45.588;5.186;2024-01-30T07:45:11;9.00;77.38
76759;DHT22;65701;45.588;5.186;2024-01-30T07:47:37;9.05;77.19
76759;DHT22;65701;45.588;5.186;2024-01-30T07:50:02;9.13;76.99
76759;DHT22;65701;45.588;5.186;2024-01-30T07:52:28;9.21;76.87
76759;DHT22;65701;45.588;5.186;2024-01-30T07:54:54;9.31;76.87
76759;DHT22;65701;45.588;5.186;2024-01-30T07:57:20;9.34;76.84
76759;DHT22;65701;45.588;5.186;2024-01-30T07:59:45;9.43;76.90
76759;DHT22;65701;45.588;5.186;2024-01-30T08:02:14;9.53;76.72
76759;DHT22;65701;45.588;5.186;2024-01-30T08:04:39;9.55;76.47
76759;DHT22;65701;45.588;5.186;2024-01-30T08:07:05;9.58;76.27
76759;DHT22;65701;45.588;5.186;2024-01-30T08:09:30;9.59;76.18
76759;DHT22;65701;45.588;5.186;2024-01-30T08:11:56;9.63;76.08
76759;DHT22;65701;45.588;5.186;2024-01-30T08:14:21;9.63;76.01
76759;DHT22;65701;45.588;5.186;2024-01-30T08:16:47;9.65;76.07
76759;DHT22;65701;45.588;5.186;2024-01-30T08:19:14;9.66;76.16
76759;DHT22;65701;45.588;5.186;2024-01-30T08:21:40;9.66;76.25
76759;DHT22;65701;45.588;5.186;2024-01-30T08:24:06;9.67;76.23
76759;DHT22;65701;45.588;5.186;2024-01-30T08:26:32;9.72;76.18
76759;DHT22;65701;45.588;5.186;2024-01-30T08:28:58;9.85;76.22
76759;DHT22;65701;45.588;5.186;2024-01-30T08:31:24;9.93;76.33
76759;DHT22;65701;45.588;5.186;2024-01-30T08:33:49;10.07;76.44
76759;DHT22;65701;45.588;5.186;2024-01-30T08:36:16;10.20;76.35
76759;DHT22;65701;45.588;5.186;2024-01-30T08:38:41;10.30;76.39
76759;DHT22;65701;45.588;5.186;2024-01-30T08:41:07;10.44;76.36
76759;DHT22;65701;45.588;5.186;2024-01-30T08:43:33;10.53;76.23
76759;DHT22;65701;45.588;5.186;2024-01-30T08:46:02;10.65;76.04
76759;DHT22;65701;45.588;5.186;2024-01-30T08:48:27;10.75;75.89
76759;DHT22;65701;45.588;5.186;2024-01-30T08:50:53;10.90;75.84
76759;DHT22;65701;45.588;5.186;2024-01-30T08:53:18;11.00;75.73
76759;DHT22;65701;45.588;5.186;2024-01-30T08:55:44;11.15;75.62
76759;DHT22;65701;45.588;5.186;2024-01-30T08:58:10;11.27;75.35
76759;DHT22;65701;45.588;5.186;2024-01-30T09:00:36;11.38;75.05
76759;DHT22;65701;45.588;5.186;2024-01-30T09:03:02;11.51;74.92
76759;DHT22;65701;45.588;5.186;2024-01-30T09:05:27;11.61;74.85
76759;DHT22;65701;45.588;5.186;2024-01-30T09:07:53;11.72;74.61
76759;DHT22;65701;45.588;5.186;2024-01-30T09:10:19;11.85;74.52
76759;DHT22;65701;45.588;5.186;2024-01-30T09:12:44;11.97;74.42
76759;DHT22;65701;45.588;5.186;2024-01-30T09:15:10;12.12;74.27
76759;DHT22;65701;45.588;5.186;2024-01-30T09:17:35;12.24;74.05
76759;DHT22;65701;45.588;5.186;2024-01-30T09:20:01;12.35;73.78
76759;DHT22;65701;45.588;5.186;2024-01-30T09:22:26;12.48;73.55
76759;DHT22;65701;45.588;5.186;2024-01-30T09:24:52;12.51;73.28
76759;DHT22;65701;45.588;5.186;2024-01-30T09:27:17;12.45;72.89
76759;DHT22;65701;45.588;5.186;2024-01-30T09:29:43;12.41;72.57
76759;DHT22;65701;45.588;5.186;2024-01-30T09:32:08;12.41;72.49
76759;DHT22;65701;45.588;5.186;2024-01-30T09:34:34;12.34;72.53
76759;DHT22;65701;45.588;5.186;2024-01-30T09:37:00;12.35;72.44
76759;DHT22;65701;45.588;5.186;2024-01-30T09:39:26;12.35;72.41
76759;DHT22;65701;45.588;5.186;2024-01-30T09:44:29;12.34;72.48
76759;DHT22;65701;45.588;5.186;2024-01-30T09:46:55;12.31;72.46
76759;DHT22;65701;45.588;5.186;2024-01-30T09:49:24;12.35;72.40
76759;DHT22;65701;45.588;5.186;2024-01-30T09:51:51;12.41;72.42
76759;DHT22;65701;45.588;5.186;2024-01-30T09:54:17;12.37;72.36
76759;DHT22;65701;45.588;5.186;2024-01-30T09:56:43;12.46;72.28
76759;DHT22;65701;45.588;5.186;2024-01-30T09:59:09;12.48;72.29
76759;DHT22;65701;45.588;5.186;2024-01-30T10:01:36;12.52;72.16
76759;DHT22;65701;45.588;5.186;2024-01-30T10:04:01;12.51;72.08
76759;DHT22;65701;45.588;5.186;2024-01-30T10:06:27;12.56;71.87
76759;DHT22;65701;45.588;5.186;2024-01-30T10:08:53;12.60;71.85
76759;DHT22;65701;45.588;5.186;2024-01-30T10:11:18;12.69;71.94
76759;DHT22;65701;45.588;5.186;2024-01-30T10:13:44;12.70;71.80
76759;DHT22;65701;45.588;5.186;2024-01-30T10:16:09;12.79;71.72
76759;DHT22;65701;45.588;5.186;2024-01-30T10:18:35;12.87;71.60
76759;DHT22;65701;45.588;5.186;2024-01-30T10:21:00;12.89;71.57
76759;DHT22;65701;45.588;5.186;2024-01-30T10:23:26;13.02;71.45
76759;DHT22;65701;45.588;5.186;2024-01-30T10:25:51;13.10;71.42
76759;DHT22;65701;45.588;5.186;2024-01-30T10:28:17;13.07;71.16
76759;DHT22;65701;45.588;5.186;2024-01-30T10:30:43;13.18;71.00
76759;DHT22;65701;45.588;5.186;2024-01-30T10:33:09;13.27;71.02
76759;DHT22;65701;45.588;5.186;2024-01-30T10:35:34;13.34;70.89
76759;DHT22;65701;45.588;5.186;2024-01-30T10:38:00;13.40;70.79
76759;DHT22;65701;45.588;5.186;2024-01-30T10:40:28;13.51;70.79
76759;DHT22;65701;45.588;5.186;2024-01-30T10:42:55;13.65;70.55
76759;DHT22;65701;45.588;5.186;2024-01-30T10:45:22;13.63;70.24
76759;DHT22;65701;45.588;5.186;2024-01-30T10:47:54;13.78;69.76
76759;DHT22;65701;45.588;5.186;2024-01-30T10:50:24;13.85;69.84
76759;DHT22;65701;45.588;5.186;2024-01-30T10:52:50;13.90;69.61
76759;DHT22;65701;45.588;5.186;2024-01-30T10:55:18;13.91;69.54
76759;DHT22;65701;45.588;5.186;2024-01-30T10:57:43;13.95;69.15
76759;DHT22;65701;45.588;5.186;2024-01-30T11:00:10;13.97;68.90
76759;DHT22;65701;45.588;5.186;2024-01-30T11:02:40;13.96;68.75
76759;DHT22;65701;45.588;5.186;2024-01-30T11:05:06;13.96;68.67
76759;DHT22;65701;45.588;5.186;2024-01-30T11:07:31;13.96;68.76
76759;DHT22;65701;45.588;5.186;2024-01-30T11:10:02;13.99;68.77
76759;DHT22;65701;45.588;5.186;2024-01-30T11:12:30;14.03;68.81
76759;DHT22;65701;45.588;5.186;2024-01-30T11:15:07;14.12;69.02
76759;DHT22;65701;45.588;5.186;2024-01-30T11:17:43;14.17;68.64
76759;DHT22;65701;45.588;5.186;2024-01-30T11:20:15;14.28;68.47
76759;DHT22;65701;45.588;5.186;2024-01-30T11:22:45;14.38;68.58
76759;DHT22;65701;45.588;5.186;2024-01-30T11:25:12;14.46;67.96
76759;DHT22;65701;45.588;5.186;2024-01-30T11:27:38;14.57;67.70
76759;DHT22;65701;45.588;5.186;2024-01-30T11:30:04;14.65;67.54
76759;DHT22;65701;45.588;5.186;2024-01-30T11:32:30;14.75;67.38
76759;DHT22;65701;45.588;5.186;2024-01-30T11:34:56;14.80;67.05
76759;DHT22;65701;45.588;5.186;2024-01-30T11:37:25;14.90;66.96
76759;DHT22;65701;45.588;5.186;2024-01-30T11:39:54;14.93;66.40
76759;DHT22;65701;45.588;5.186;2024-01-30T11:42:19;14.96;65.97
76759;DHT22;65701;45.588;5.186;2024-01-30T11:44:49;14.99;65.76
76759;DHT22;65701;45.588;5.186;2024-01-30T11:47:15;14.97;65.45
76759;DHT22;65701;45.588;5.186;2024-01-30T11:49:41;14.97;64.79
76759;DHT22;65701;45.588;5.186;2024-01-30T11:52:07;15.02;63.93
76759;DHT22;65701;45.588;5.186;2024-01-30T11:54:32;14.89;63.65
76759;DHT22;65701;45.588;5.186;2024-01-30T11:56:58;14.95;63.38
76759;DHT22;65701;45.588;5.186;2024-01-30T11:59:24;14.95;63.04
76759;DHT22;65701;45.588;5.186;2024-01-30T12:01:51;14.89;62.53
76759;DHT22;65701;45.588;5.186;2024-01-30T12:04:18;14.95;62.56
76759;DHT22;65701;45.588;5.186;2024-01-30T12:06:43;15.00;62.68
76759;DHT22;65701;45.588;5.186;2024-01-30T12:09:09;14.93;62.58
76759;DHT22;65701;45.588;5.186;2024-01-30T12:11:47;14.99;62.39
76759;DHT22;65701;45.588;5.186;2024-01-30T12:14:13;15.02;62.73
76759;DHT22;65701;45.588;5.186;2024-01-30T12:16:39;15.10;62.64
76759;DHT22;65701;45.588;5.186;2024-01-30T12:19:06;15.02;62.27
76759;DHT22;65701;45.588;5.186;2024-01-30T12:21:33;15.11;62.32
76759;DHT22;65701;45.588;5.186;2024-01-30T12:23:59;15.11;62.00
76759;DHT22;65701;45.588;5.186;2024-01-30T12:26:25;15.13;62.18
76759;DHT22;65701;45.588;5.186;2024-01-30T12:28:54;15.17;62.24
76759;DHT22;65701;45.588;5.186;2024-01-30T12:31:26;15.16;62.10
76759;DHT22;65701;45.588;5.186;2024-01-30T12:33:52;15.14;61.30
76759;DHT22;65701;45.588;5.186;2024-01-30T12:36:18;15.14;61.15
76759;DHT22;65701;45.588;5.186;2024-01-30T12:38:43;15.16;61.05
76759;DHT22;65701;45.588;5.186;2024-01-30T12:41:09;15.13;60.68
76759;DHT22;65701;45.588;5.186;2024-01-30T12:43:36;15.22;61.00
76759;DHT22;65701;45.588;5.186;2024-01-30T12:46:02;15.20;60.99
76759;DHT22;65701;45.588;5.186;2024-01-30T12:48:28;15.14;60.70
76759;DHT22;65701;45.588;5.186;2024-01-30T12:50:56;15.17;60.64
76759;DHT22;65701;45.588;5.186;2024-01-30T12:53:21;15.20;60.59
76759;DHT22;65701;45.588;5.186;2024-01-30T12:55:47;15.23;60.67
76759;DHT22;65701;45.588;5.186;2024-01-30T12:58:12;15.26;60.71
76759;DHT22;65701;45.588;5.186;2024-01-30T13:00:38;15.23;60.62
76759;DHT22;65701;45.588;5.186;2024-01-30T13:03:04;15.19;60.17
76759;DHT22;65701;45.588;5.186;2024-01-30T13:05:29;15.11;59.61
76759;DHT22;65701;45.588;5.186;2024-01-30T13:07:55;15.11;59.30
76759;DHT22;65701;45.588;5.186;2024-01-30T13:10:22;15.10;59.49
76759;DHT22;65701;45.588;5.186;2024-01-30T13:12:48;15.11;59.42
76759;DHT22;65701;45.588;5.186;2024-01-30T13:15:13;15.11;59.35
76759;DHT22;65701;45.588;5.186;2024-01-30T13:17:39;15.13;59.69
76759;DHT22;65701;45.588;5.186;2024-01-30T13:20:05;15.16;59.84
76759;DHT22;65701;45.588;5.186;2024-01-30T13:22:33;15.14;59.55
76759;DHT22;65701;45.588;5.186;2024-01-30T13:24:59;15.13;59.21
76759;DHT22;65701;45.588;5.186;2024-01-30T13:27:24;15.10;58.99
76759;DHT22;65701;45.588;5.186;2024-01-30T13:29:50;15.13;58.92
76759;DHT22;65701;45.588;5.186;2024-01-30T13:32:15;15.10;59.01
76759;DHT22;65701;45.588;5.186;2024-01-30T13:34:41;15.07;59.22
76759;DHT22;65701;45.588;5.186;2024-01-30T13:37:07;15.06;59.20
76759;DHT22;65701;45.588;5.186;2024-01-30T13:39:32;15.02;59.40
76759;DHT22;65701;45.588;5.186;2024-01-30T13:41:58;14.96;59.38
76759;DHT22;65701;45.588;5.186;2024-01-30T13:44:23;14.95;59.60
76759;DHT22;65701;45.588;5.186;2024-01-30T13:46:49;14.90;59.25
76759;DHT22;65701;45.588;5.186;2024-01-30T13:49:15;14.86;59.13
76759;DHT22;65701;45.588;5.186;2024-01-30T13:51:42;14.82;58.86
76759;DHT22;65701;45.588;5.186;2024-01-30T13:54:07;14.71;58.23
76759;DHT22;65701;45.588;5.186;2024-01-30T13:56:33;14.67;57.95
76759;DHT22;65701;45.588;5.186;2024-01-30T13:58:59;14.62;57.76
76759;DHT22;65701;45.588;5.186;2024-01-30T14:01:26;14.57;57.58
76759;DHT22;65701;45.588;5.186;2024-01-30T14:03:52;14.59;57.63
76759;DHT22;65701;45.588;5.186;2024-01-30T14:06:18;14.58;57.94
76759;DHT22;65701;45.588;5.186;2024-01-30T14:08:43;14.51;58.08
76759;DHT22;65701;45.588;5.186;2024-01-30T14:11:09;14.58;57.76
76759;DHT22;65701;45.588;5.186;2024-01-30T14:13:35;14.51;57.10
76759;DHT22;65701;45.588;5.186;2024-01-30T14:16:00;14.58;57.47
76759;DHT22;65701;45.588;5.186;2024-01-30T14:18:26;14.61;57.73
76759;DHT22;65701;45.588;5.186;2024-01-30T14:20:52;14.61;57.98
76759;DHT22;65701;45.588;5.186;2024-01-30T14:23:18;14.61;58.23
76759;DHT22;65701;45.588;5.186;2024-01-30T14:25:43;14.58;58.54
76759;DHT22;65701;45.588;5.186;2024-01-30T14:28:09;14.57;58.51
76759;DHT22;65701;45.588;5.186;2024-01-30T14:30:35;14.59;58.92
76759;DHT22;65701;45.588;5.186;2024-01-30T14:33:01;14.57;58.81
76759;DHT22;65701;45.588;5.186;2024-01-30T14:35:26;14.52;58.81
76759;DHT22;65701;45.588;5.186;2024-01-30T14:37:52;14.51;58.67
76759;DHT22;65701;45.588;5.186;2024-01-30T14:40:18;14.49;58.76
76759;DHT22;65701;45.588;5.186;2024-01-30T14:42:44;14.48;58.68
76759;DHT22;65701;45.588;5.186;2024-01-30T14:45:11;14.44;58.14
76759;DHT22;65701;45.588;5.186;2024-01-30T14:47:37;14.42;58.34
76759;DHT22;65701;45.588;5.186;2024-01-30T14:50:03;14.41;58.36
76759;DHT22;65701;45.588;5.186;2024-01-30T14:52:30;14.38;58.16
76759;DHT22;65701;45.588;5.186;2024-01-30T14:54:56;14.35;58.29
76759;DHT22;65701;45.588;5.186;2024-01-30T14:57:26;14.34;58.35
76759;DHT22;65701;45.588;5.186;2024-01-30T14:59:51;14.34;58.45
76759;DHT22;65701;45.588;5.186;2024-01-30T15:02:17;14.30;58.31
76759;DHT22;65701;45.588;5.186;2024-01-30T15:04:42;14.31;58.40
76759;DHT22;65701;45.588;5.186;2024-01-30T15:07:08;14.28;58.63
76759;DHT22;65701;45.588;5.186;2024-01-30T15:09:33;14.27;58.54
76759;DHT22;65701;45.588;5.186;2024-01-30T15:11:59;14.24;58.62
76759;DHT22;65701;45.588;5.186;2024-01-30T15:14:25;14.24;58.71
76759;DHT22;65701;45.588;5.186;2024-01-30T15:16:50;14.24;58.94
76759;DHT22;65701;45.588;5.186;2024-01-30T15:19:16;14.18;58.89
76759;DHT22;65701;45.588;5.186;2024-01-30T15:21:42;14.18;59.11
76759;DHT22;65701;45.588;5.186;2024-01-30T15:24:07;14.14;59.22
76759;DHT22;65701;45.588;5.186;2024-01-30T15:26:33;14.12;59.22
76759;DHT22;65701;45.588;5.186;2024-01-30T15:28:58;14.10;59.46
76759;DHT22;65701;45.588;5.186;2024-01-30T15:31:24;14.10;59.33
76759;DHT22;65701;45.588;5.186;2024-01-30T15:33:49;14.04;59.22
76759;DHT22;65701;45.588;5.186;2024-01-30T15:36:15;14.03;59.29
76759;DHT22;65701;45.588;5.186;2024-01-30T15:38:40;13.99;59.32
76759;DHT22;65701;45.588;5.186;2024-01-30T15:41:06;13.99;59.31
76759;DHT22;65701;45.588;5.186;2024-01-30T15:43:32;13.95;59.27
76759;DHT22;65701;45.588;5.186;2024-01-30T15:45:58;13.91;59.43
76759;DHT22;65701;45.588;5.186;2024-01-30T15:48:24;13.91;59.54
76759;DHT22;65701;45.588;5.186;2024-01-30T15:50:51;13.87;59.62
76759;DHT22;65701;45.588;5.186;2024-01-30T15:53:17;13.83;59.64
76759;DHT22;65701;45.588;5.186;2024-01-30T15:55:42;13.78;59.55
76759;DHT22;65701;45.588;5.186;2024-01-30T15:58:08;13.75;59.45
76759;DHT22;65701;45.588;5.186;2024-01-30T16:00:33;13.72;59.56
76759;DHT22;65701;45.588;5.186;2024-01-30T16:02:59;13.65;59.50
76759;DHT22;65701;45.588;5.186;2024-01-30T16:05:25;13.63;59.64
76759;DHT22;65701;45.588;5.186;2024-01-30T16:07:51;13.58;59.73
76759;DHT22;65701;45.588;5.186;2024-01-30T16:10:16;13.51;59.78
76759;DHT22;65701;45.588;5.186;2024-01-30T16:12:43;13.50;59.98
76759;DHT22;65701;45.588;5.186;2024-01-30T16:15:15;13.42;59.89
76759;DHT22;65701;45.588;5.186;2024-01-30T16:17:41;13.38;60.02
76759;DHT22;65701;45.588;5.186;2024-01-30T16:20:08;13.34;60.13
76759;DHT22;65701;45.588;5.186;2024-01-30T16:22:33;13.30;60.25
76759;DHT22;65701;45.588;5.186;2024-01-30T16:24:59;13.25;60.38
76759;DHT22;65701;45.588;5.186;2024-01-30T16:27:25;13.21;60.44
76759;DHT22;65701;45.588;5.186;2024-01-30T16:29:50;13.17;60.26
76759;DHT22;65701;45.588;5.186;2024-01-30T16:32:16;13.13;60.40
76759;DHT22;65701;45.588;5.186;2024-01-30T16:34:41;13.08;60.51
76759;DHT22;65701;45.588;5.186;2024-01-30T16:37:07;13.02;60.42
76759;DHT22;65701;45.588;5.186;2024-01-30T16:39:32;12.96;60.37
76759;DHT22;65701;45.588;5.186;2024-01-30T16:41:58;12.95;60.40
76759;DHT22;65701;45.588;5.186;2024-01-30T16:44:24;12.89;60.39
76759;DHT22;65701;45.588;5.186;2024-01-30T16:46:50;12.85;60.65
76759;DHT22;65701;45.588;5.186;2024-01-30T16:49:16;12.85;60.74
76759;DHT22;65701;45.588;5.186;2024-01-30T16:51:41;12.79;60.95
76759;DHT22;65701;45.588;5.186;2024-01-30T16:54:08;12.75;60.89
76759;DHT22;65701;45.588;5.186;2024-01-30T16:56:33;12.72;61.02
76759;DHT22;65701;45.588;5.186;2024-01-30T16:58:59;12.65;61.15
76759;DHT22;65701;45.588;5.186;2024-01-30T17:01:24;12.60;61.30
76759;DHT22;65701;45.588;5.186;2024-01-30T17:03:50;12.53;61.43
76759;DHT22;65701;45.588;5.186;2024-01-30T17:06:16;12.52;61.59
76759;DHT22;65701;45.588;5.186;2024-01-30T17:08:41;12.46;61.74
76759;DHT22;65701;45.588;5.186;2024-01-30T17:11:07;12.37;61.82
76759;DHT22;65701;45.588;5.186;2024-01-30T17:13:34;12.38;62.01
76759;DHT22;65701;45.588;5.186;2024-01-30T17:15:59;12.28;62.26
76759;DHT22;65701;45.588;5.186;2024-01-30T17:18:25;12.23;62.39
76759;DHT22;65701;45.588;5.186;2024-01-30T17:20:51;12.14;62.54
76759;DHT22;65701;45.588;5.186;2024-01-30T17:23:16;12.06;62.71
76759;DHT22;65701;45.588;5.186;2024-01-30T17:25:42;12.00;62.89
76759;DHT22;65701;45.588;5.186;2024-01-30T17:28:07;11.90;63.01
76759;DHT22;65701;45.588;5.186;2024-01-30T17:30:35;11.87;63.13
76759;DHT22;65701;45.588;5.186;2024-01-30T17:33:02;11.85;63.24
76759;DHT22;65701;45.588;5.186;2024-01-30T17:35:27;11.82;63.37
76759;DHT22;65701;45.588;5.186;2024-01-30T17:37:53;11.76;63.48
76759;DHT22;65701;45.588;5.186;2024-01-30T17:40:19;11.70;63.55
76759;DHT22;65701;45.588;5.186;2024-01-30T17:42:44;11.66;63.65
76759;DHT22;65701;45.588;5.186;2024-01-30T17:45:10;11.63;63.76
76759;DHT22;65701;45.588;5.186;2024-01-30T17:47:35;11.61;63.86
76759;DHT22;65701;45.588;5.186;2024-01-30T17:50:01;11.55;64.07
76759;DHT22;65701;45.588;5.186;2024-01-30T17:52:27;11.52;64.12
76759;DHT22;65701;45.588;5.186;2024-01-30T17:54:54;11.45;64.31
76759;DHT22;65701;45.588;5.186;2024-01-30T17:57:19;11.41;64.33
76759;DHT22;65701;45.588;5.186;2024-01-30T17:59:45;11.38;64.41
76759;DHT22;65701;45.588;5.186;2024-01-30T18:02:11;11.27;64.52
76759;DHT22;65701;45.588;5.186;2024-01-30T18:04:39;11.27;64.68
76759;DHT22;65701;45.588;5.186;2024-01-30T18:07:04;11.21;64.74
76759;DHT22;65701;45.588;5.186;2024-01-30T18:09:30;11.20;64.80
76759;DHT22;65701;45.588;5.186;2024-01-30T18:11:56;11.21;64.83
76759;DHT22;65701;45.588;5.186;2024-01-30T18:14:21;11.14;64.88
76759;DHT22;65701;45.588;5.186;2024-01-30T18:16:47;11.07;64.94
76759;DHT22;65701;45.588;5.186;2024-01-30T18:19:13;11.06;64.99
76759;DHT22;65701;45.588;5.186;2024-01-30T18:21:39;10.97;65.00
76759;DHT22;65701;45.588;5.186;2024-01-30T18:24:05;10.92;65.07
76759;DHT22;65701;45.588;5.186;2024-01-30T18:26:31;10.86;65.27
76759;DHT22;65701;45.588;5.186;2024-01-30T18:28:56;10.86;65.45
76759;DHT22;65701;45.588;5.186;2024-01-30T18:31:23;10.84;65.45
76759;DHT22;65701;45.588;5.186;2024-01-30T18:33:49;10.80;65.55
76759;DHT22;65701;45.588;5.186;2024-01-30T18:36:20;10.73;65.55
76759;DHT22;65701;45.588;5.186;2024-01-30T18:38:47;10.69;65.62
76759;DHT22;65701;45.588;5.186;2024-01-30T18:41:13;10.63;65.69
76759;DHT22;65701;45.588;5.186;2024-01-30T18:43:39;10.56;65.79
76759;DHT22;65701;45.588;5.186;2024-01-30T18:46:04;10.53;65.78
76759;DHT22;65701;45.588;5.186;2024-01-30T18:48:30;10.41;65.96
76759;DHT22;65701;45.588;5.186;2024-01-30T18:50:56;10.41;66.23
76759;DHT22;65701;45.588;5.186;2024-01-30T18:53:22;10.37;66.23
76759;DHT22;65701;45.588;5.186;2024-01-30T18:55:47;10.37;66.25
76759;DHT22;65701;45.588;5.186;2024-01-30T18:58:14;10.32;66.25
76759;DHT22;65701;45.588;5.186;2024-01-30T19:00:39;10.25;66.29
76759;DHT22;65701;45.588;5.186;2024-01-30T19:03:07;10.24;66.53
76759;DHT22;65701;45.588;5.186;2024-01-30T19:05:32;10.20;66.67
76759;DHT22;65701;45.588;5.186;2024-01-30T19:07:59;10.18;66.81
76759;DHT22;65701;45.588;5.186;2024-01-30T19:10:25;10.18;66.77
76759;DHT22;65701;45.588;5.186;2024-01-30T19:12:52;10.08;66.83
76759;DHT22;65701;45.588;5.186;2024-01-30T19:15:18;10.08;67.07
76759;DHT22;65701;45.588;5.186;2024-01-30T19:17:44;10.08;67.16
76759;DHT22;65701;45.588;5.186;2024-01-30T19:20:10;10.03;67.45
76759;DHT22;65701;45.588;5.186;2024-01-30T19:22:36;10.04;67.51
76759;DHT22;65701;45.588;5.186;2024-01-30T19:25:02;10.01;67.40
76759;DHT22;65701;45.588;5.186;2024-01-30T19:27:29;10.00;67.38
76759;DHT22;65701;45.588;5.186;2024-01-30T19:29:54;9.96;67.55
76759;DHT22;65701;45.588;5.186;2024-01-30T19:32:20;9.94;67.77
76759;DHT22;65701;45.588;5.186;2024-01-30T19:34:46;9.91;67.91
76759;DHT22;65701;45.588;5.186;2024-01-30T19:37:11;9.91;67.99
76759;DHT22;65701;45.588;5.186;2024-01-30T19:39:37;9.93;68.10
76759;DHT22;65701;45.588;5.186;2024-01-30T19:42:04;9.91;68.04
76759;DHT22;65701;45.588;5.186;2024-01-30T19:44:29;9.89;67.99
76759;DHT22;65701;45.588;5.186;2024-01-30T19:46:55;9.86;67.91
76759;DHT22;65701;45.588;5.186;2024-01-30T19:49:20;9.86;68.20
76759;DHT22;65701;45.588;5.186;2024-01-30T19:51:46;9.86;68.24
76759;DHT22;65701;45.588;5.186;2024-01-30T19:54:11;9.80;68.37
76759;DHT22;65701;45.588;5.186;2024-01-30T19:56:43;9.77;68.42
76759;DHT22;65701;45.588;5.186;2024-01-30T19:59:08;9.72;68.28
76759;DHT22;65701;45.588;5.186;2024-01-30T20:01:34;9.62;68.22
76759;DHT22;65701;45.588;5.186;2024-01-30T20:03:59;9.55;68.24
76759;DHT22;65701;45.588;5.186;2024-01-30T20:06:25;9.48;68.25
76759;DHT22;65701;45.588;5.186;2024-01-30T20:08:50;9.45;68.30
76759;DHT22;65701;45.588;5.186;2024-01-30T20:11:16;9.39;68.40
76759;DHT22;65701;45.588;5.186;2024-01-30T20:13:41;9.35;68.37
76759;DHT22;65701;45.588;5.186;2024-01-30T20:16:07;9.30;68.39
76759;DHT22;65701;45.588;5.186;2024-01-30T20:18:33;9.22;68.32
76759;DHT22;65701;45.588;5.186;2024-01-30T20:20:59;9.17;68.37
76759;DHT22;65701;45.588;5.186;2024-01-30T20:23:25;9.11;68.38
76759;DHT22;65701;45.588;5.186;2024-01-30T20:25:50;9.04;68.48
76759;DHT22;65701;45.588;5.186;2024-01-30T20:28:16;9.03;68.52
76759;DHT22;65701;45.588;5.186;2024-01-30T20:30:42;8.97;68.61
76759;DHT22;65701;45.588;5.186;2024-01-30T20:33:07;8.93;68.63
76759;DHT22;65701;45.588;5.186;2024-01-30T20:35:39;8.90;68.80
76759;DHT22;65701;45.588;5.186;2024-01-30T20:38:04;8.88;68.85
76759;DHT22;65701;45.588;5.186;2024-01-30T20:40:31;8.88;68.92
76759;DHT22;65701;45.588;5.186;2024-01-30T20:42:57;8.86;68.96
76759;DHT22;65701;45.588;5.186;2024-01-30T20:45:22;8.83;69.10
76759;DHT22;65701;45.588;5.186;2024-01-30T20:47:48;8.80;69.29
76759;DHT22;65701;45.588;5.186;2024-01-30T20:50:14;8.79;69.77
76759;DHT22;65701;45.588;5.186;2024-01-30T20:52:40;8.79;69.77
76759;DHT22;65701;45.588;5.186;2024-01-30T20:55:05;8.76;69.79